Time,TemperatureF,DewpointF,PressureIn,WindDirection,WindDirectionDegrees,WindSpeedMPH,WindSpeedGustMPH,Humidity,HourlyPrecipIn,Conditions,Clouds,dailyrainin,SoftwareType,DateUTC
2013-03-28 00:00:00,58.5,38.3,30.13,SSW,193,4.9,6.9,47,0.00,,---,0.00,VWS V14.00,2013-03-28 05:00:00,
2013-03-28 00:10:00,58.8,39.2,30.13,SSW,195,4.5,10.5,48,0.00,,---,0.00,VWS V14.00,2013-03-28 05:10:00,
2013-03-28 00:20:00,58.8,39.2,30.13,SE,145,4.0,7.4,48,0.00,,---,0.00,VWS V14.00,2013-03-28 05:20:00,
2013-03-28 00:30:00,58.5,38.9,30.13,SSE,147,3.6,5.8,48,0.00,,---,0.00,VWS V14.00,2013-03-28 05:30:00,
2013-03-28 00:40:00,58.3,39.2,30.13,South,173,4.5,8.3,49,0.00,,---,0.00,VWS V14.00,2013-03-28 05:40:00,
2013-03-28 00:50:00,58.3,39.2,30.13,South,185,5.8,6.9,49,0.00,,---,0.00,VWS V14.00,2013-03-28 05:50:00,
2013-03-28 01:00:00,58.3,39.2,30.13,South,179,5.8,9.2,49,0.00,,---,0.00,VWS V14.00,2013-03-28 06:00:00,
2013-03-28 01:10:00,58.3,39.7,30.13,South,171,4.9,9.2,50,0.00,,---,0.00,VWS V14.00,2013-03-28 06:10:00,
2013-03-28 01:20:00,58.3,39.7,30.13,SSW,200,3.1,8.7,50,0.00,,---,0.00,VWS V14.00,2013-03-28 06:20:00,
2013-03-28 01:30:00,58.1,39.6,30.13,SE,141,3.6,9.6,50,0.00,,---,0.00,VWS V14.00,2013-03-28 06:30:00,
2013-03-28 01:40:00,58.1,40.1,30.13,SW,215,6.3,9.6,51,0.00,,---,0.00,VWS V14.00,2013-03-28 06:40:00,
2013-03-28 01:50:00,57.9,39.9,30.13,South,170,6.7,8.7,51,0.00,,---,0.00,VWS V14.00,2013-03-28 06:50:00,
2013-03-28 02:00:00,57.7,40.2,30.13,SSE,160,6.9,10.5,52,0.00,,---,0.00,VWS V14.00,2013-03-28 07:00:00,
2013-03-28 02:10:00,57.6,40.1,30.13,SSW,206,7.8,9.6,52,0.00,,---,0.00,VWS V14.00,2013-03-28 07:10:00,
2013-03-28 02:20:00,57.2,40.2,30.13,SE,146,4.0,12.5,53,0.00,,---,0.00,VWS V14.00,2013-03-28 07:20:00,
2013-03-28 02:30:00,56.8,39.9,30.13,SSW,203,5.8,10.1,53,0.00,,---,0.00,VWS V14.00,2013-03-28 07:30:00,
2013-03-28 02:40:00,56.5,40.0,30.13,South,190,6.9,10.5,54,0.00,,---,0.00,VWS V14.00,2013-03-28 07:40:00,
2013-03-28 02:50:00,56.1,40.2,30.13,South,183,6.7,10.1,55,0.00,,---,0.00,VWS V14.00,2013-03-28 07:50:00,
2013-03-28 03:00:00,55.9,40.5,30.13,SSE,147,3.6,8.7,56,0.00,,---,0.00,VWS V14.00,2013-03-28 08:00:00,
2013-03-28 03:10:00,55.6,40.2,30.13,South,191,0.0,9.6,56,0.00,,---,0.00,VWS V14.00,2013-03-28 08:10:00,
2013-03-28 03:20:00,55.2,40.3,30.13,SSW,192,6.7,9.6,57,0.00,,---,0.00,VWS V14.00,2013-03-28 08:20:00,
2013-03-28 03:30:00,55.2,40.7,30.13,SSE,159,5.8,10.1,58,0.00,,---,0.00,VWS V14.00,2013-03-28 08:30:00,
2013-03-28 03:40:00,54.9,40.8,30.13,SSE,148,4.9,8.7,59,0.00,,---,0.00,VWS V14.00,2013-03-28 08:40:00,
2013-03-28 03:50:00,54.5,40.9,30.13,South,179,4.5,8.3,60,0.00,,---,0.00,VWS V14.00,2013-03-28 08:50:00,
2013-03-28 04:00:00,54.3,41.2,30.13,SSE,159,3.6,7.8,61,0.00,,---,0.00,VWS V14.00,2013-03-28 09:00:00,
2013-03-28 04:10:00,54.3,42.0,30.13,SSW,198,5.4,10.5,63,0.00,,---,0.00,VWS V14.00,2013-03-28 09:10:00,
2013-03-28 04:20:00,54.1,42.2,30.13,SSW,194,5.4,8.3,64,0.00,,---,0.00,VWS V14.00,2013-03-28 09:20:00,
2013-03-28 04:30:00,54.0,42.1,30.13,SSE,153,4.0,8.3,64,0.00,,---,0.00,VWS V14.00,2013-03-28 09:30:00,
2013-03-28 04:40:00,53.8,42.3,30.13,South,190,6.3,9.2,65,0.00,,---,0.00,VWS V14.00,2013-03-28 09:40:00,
2013-03-28 04:50:00,53.8,42.7,30.13,SSE,154,6.3,7.4,66,0.00,,---,0.00,VWS V14.00,2013-03-28 09:50:00,
2013-03-28 05:00:00,53.6,42.9,30.13,South,173,4.9,8.7,67,0.00,,---,0.00,VWS V14.00,2013-03-28 10:00:00,
2013-03-28 05:10:00,53.6,43.3,30.13,South,177,6.3,9.6,68,0.00,,---,0.00,VWS V14.00,2013-03-28 10:10:00,
2013-03-28 05:20:00,53.4,43.5,30.13,SE,138,3.6,7.4,69,0.00,,---,0.00,VWS V14.00,2013-03-28 10:20:00,
2013-03-28 05:30:00,53.1,43.2,30.13,SSE,158,3.1,7.8,69,0.00,,---,0.00,VWS V14.00,2013-03-28 10:30:00,
2013-03-28 05:40:00,52.7,43.2,30.13,SE,135,4.0,9.6,70,0.00,,---,0.00,VWS V14.00,2013-03-28 10:40:00,
2013-03-28 05:50:00,52.5,43.4,30.13,SSE,160,6.3,8.3,71,0.00,,---,0.00,VWS V14.00,2013-03-28 10:50:00,
2013-03-28 06:00:00,52.2,43.1,30.13,South,188,5.8,6.9,71,0.00,,---,0.00,VWS V14.00,2013-03-28 11:00:00,
2013-03-28 06:10:00,51.8,43.1,30.13,SSE,155,6.7,10.5,72,0.00,,---,0.00,VWS V14.00,2013-03-28 11:10:00,
2013-03-28 06:20:00,51.6,42.9,30.13,SSE,148,3.6,8.3,72,0.00,,---,0.00,VWS V14.00,2013-03-28 11:20:00,
2013-03-28 06:30:00,51.4,43.1,30.13,SSW,192,6.9,8.7,73,0.00,,---,0.00,VWS V14.00,2013-03-28 11:30:00,
2013-03-28 06:40:00,51.3,42.9,30.13,South,175,4.5,9.2,73,0.00,,---,0.00,VWS V14.00,2013-03-28 11:40:00,
2013-03-28 06:50:00,51.1,42.7,30.13,SE,145,3.6,10.1,73,0.00,,---,0.00,VWS V14.00,2013-03-28 11:50:00,
2013-03-28 07:00:00,51.1,43.1,30.13,SSE,153,2.7,9.2,74,0.00,,---,0.00,VWS V14.00,2013-03-28 12:00:00,
2013-03-28 07:10:00,50.9,42.9,30.13,South,186,4.0,7.4,74,0.00,,---,0.00,VWS V14.00,2013-03-28 12:10:00,
2013-03-28 07:20:00,50.9,42.9,30.16,SSE,147,4.0,9.2,74,0.00,,---,0.00,VWS V14.00,2013-03-28 12:20:00,
2013-03-28 07:30:00,50.9,43.3,30.16,SE,145,5.4,7.8,75,0.00,,---,0.00,VWS V14.00,2013-03-28 12:30:00,
2013-03-28 07:40:00,51.1,43.4,30.16,South,191,4.0,8.3,75,0.00,,---,0.00,VWS V14.00,2013-03-28 12:40:00,
2013-03-28 07:50:00,51.3,43.6,30.16,ESE,120,8.3,8.3,75,0.00,,---,0.00,VWS V14.00,2013-03-28 12:50:00,
2013-03-28 08:00:00,51.4,44.1,30.16,SE,137,8.3,9.2,76,0.00,,---,0.00,VWS V14.00,2013-03-28 13:00:00,
2013-03-28 08:10:00,51.8,44.8,30.16,SE,145,3.6,10.1,77,0.00,,---,0.00,VWS V14.00,2013-03-28 13:10:00,
2013-03-28 08:20:00,52.3,45.3,30.16,SSW,194,5.4,8.7,77,0.00,,---,0.00,VWS V14.00,2013-03-28 13:20:00,
2013-03-28 08:30:00,52.9,45.9,30.16,SSW,195,5.8,9.2,77,0.00,,---,0.00,VWS V14.00,2013-03-28 13:30:00,
2013-03-28 08:40:00,53.6,46.6,30.19,South,179,4.9,8.3,77,0.00,,---,0.00,VWS V14.00,2013-03-28 13:40:00,
2013-03-28 08:50:00,54.3,47.3,30.19,SSW,193,4.0,10.5,77,0.00,,---,0.00,VWS V14.00,2013-03-28 13:50:00,
2013-03-28 09:00:00,55.0,47.6,30.19,SSW,205,5.4,10.1,76,0.00,,---,0.00,VWS V14.00,2013-03-28 14:00:00,
2013-03-28 09:10:00,55.9,48.5,30.19,South,191,4.9,9.6,76,0.00,,---,0.00,VWS V14.00,2013-03-28 14:10:00,
2013-03-28 09:20:00,57.0,49.5,30.19,SSE,168,6.9,8.7,76,0.00,,---,0.00,VWS V14.00,2013-03-28 14:20:00,
2013-03-28 09:30:00,58.1,50.2,30.19,South,190,5.8,12.1,75,0.00,,---,0.00,VWS V14.00,2013-03-28 14:30:00,
2013-03-28 09:40:00,58.8,50.6,30.19,SSW,212,8.3,12.1,74,0.00,,---,0.00,VWS V14.00,2013-03-28 14:40:00,
2013-03-28 09:50:00,59.4,50.7,30.19,South,191,5.8,10.1,73,0.00,,---,0.00,VWS V14.00,2013-03-28 14:50:00,
2013-03-28 10:00:00,59.5,50.9,30.19,SSW,202,6.7,11.0,73,0.00,,---,0.00,VWS V14.00,2013-03-28 15:00:00,
2013-03-28 10:10:00,60.4,51.4,30.19,SSW,202,5.4,10.1,72,0.00,,---,0.00,VWS V14.00,2013-03-28 15:10:00,
2013-03-28 10:20:00,61.0,51.5,30.19,SE,134,5.8,12.1,71,0.00,,---,0.00,VWS V14.00,2013-03-28 15:20:00,
2013-03-28 10:30:00,61.9,52.0,30.19,South,186,3.6,10.5,70,0.00,,---,0.00,VWS V14.00,2013-03-28 15:30:00,
2013-03-28 10:40:00,62.6,52.7,30.19,South,171,7.8,9.2,70,0.00,,---,0.00,VWS V14.00,2013-03-28 15:40:00,
2013-03-28 10:50:00,63.0,52.6,30.19,SSW,210,4.9,12.5,69,0.00,,---,0.00,VWS V14.00,2013-03-28 15:50:00,
2013-03-28 11:00:00,63.5,52.8,30.19,SSE,151,5.8,11.2,68,0.00,,---,0.00,VWS V14.00,2013-03-28 16:00:00,
2013-03-28 11:10:00,64.4,53.6,30.19,SSW,194,4.9,11.0,68,0.00,,---,0.00,VWS V14.00,2013-03-28 16:10:00,
2013-03-28 11:20:00,65.3,54.1,30.19,SSW,211,5.4,11.2,67,0.00,,---,0.00,VWS V14.00,2013-03-28 16:20:00,
2013-03-28 11:30:00,66.2,54.5,30.19,South,181,5.8,11.2,66,0.00,,---,0.00,VWS V14.00,2013-03-28 16:30:00,
2013-03-28 11:40:00,66.6,54.4,30.19,SSW,200,6.3,9.2,65,0.00,,---,0.00,VWS V14.00,2013-03-28 16:40:00,
2013-03-28 11:50:00,66.6,54.4,30.19,SSW,197,6.9,12.1,65,0.00,,---,0.00,VWS V14.00,2013-03-28 16:50:00,
2013-03-28 12:00:00,66.6,54.0,30.19,SSE,157,3.6,11.0,64,0.00,,---,0.00,VWS V14.00,2013-03-28 17:00:00,
2013-03-28 12:10:00,66.7,54.2,30.19,WSW,252,4.5,10.1,64,0.00,,---,0.00,VWS V14.00,2013-03-28 17:10:00,
2013-03-28 12:20:00,66.4,53.4,30.19,South,174,5.4,10.1,63,0.00,,---,0.00,VWS V14.00,2013-03-28 17:20:00,
2013-03-28 12:30:00,66.7,53.8,30.19,South,180,4.5,11.2,63,0.00,,---,0.00,VWS V14.00,2013-03-28 17:30:00,
2013-03-28 12:40:00,66.9,53.9,30.19,SSE,166,2.7,9.6,63,0.00,,---,0.00,VWS V14.00,2013-03-28 17:40:00,
2013-03-28 12:50:00,67.5,54.0,30.16,SSW,194,6.9,11.6,62,0.00,,---,0.00,VWS V14.00,2013-03-28 17:50:00,
2013-03-28 13:00:00,67.5,54.0,30.16,SSE,162,6.7,8.7,62,0.00,,---,0.00,VWS V14.00,2013-03-28 18:00:00,
2013-03-28 13:10:00,67.5,53.6,30.16,SSE,164,5.8,10.5,61,0.00,,---,0.00,VWS V14.00,2013-03-28 18:10:00,
2013-03-28 13:20:00,67.6,53.7,30.16,SSW,202,7.8,12.5,61,0.00,,---,0.00,VWS V14.00,2013-03-28 18:20:00,
2013-03-28 13:30:00,67.8,53.9,30.16,SSE,168,4.0,11.0,61,0.00,,---,0.00,VWS V14.00,2013-03-28 18:30:00,
2013-03-28 13:40:00,68.2,54.2,30.16,SE,144,6.7,11.6,61,0.00,,---,0.00,VWS V14.00,2013-03-28 18:40:00,
2013-03-28 13:50:00,67.6,53.7,30.16,SSE,167,6.9,11.6,61,0.00,,---,0.00,VWS V14.00,2013-03-28 18:50:00,
2013-03-28 14:00:00,66.7,52.9,30.16,SSE,147,4.9,12.1,61,0.00,,---,0.00,VWS V14.00,2013-03-28 19:00:00,
2013-03-28 14:10:00,66.6,53.2,30.13,South,179,5.4,11.2,62,0.00,,---,0.00,VWS V14.00,2013-03-28 19:10:00,
2013-03-28 14:20:00,66.2,52.8,30.13,SE,131,4.5,9.2,62,0.00,,---,0.00,VWS V14.00,2013-03-28 19:20:00,
2013-03-28 14:30:00,66.2,53.2,30.13,SSW,196,8.3,9.2,63,0.00,,---,0.00,VWS V14.00,2013-03-28 19:30:00,
2013-03-28 14:40:00,66.2,53.2,30.13,South,182,4.0,9.2,63,0.00,,---,0.00,VWS V14.00,2013-03-28 19:40:00,
2013-03-28 14:50:00,66.7,54.2,30.13,South,180,4.0,9.6,64,0.00,,---,0.00,VWS V14.00,2013-03-28 19:50:00,
2013-03-28 15:00:00,68.2,55.1,30.13,South,171,6.3,10.1,63,0.00,,---,0.00,VWS V14.00,2013-03-28 20:00:00,
2013-03-28 15:10:00,68.4,54.8,30.10,SSE,148,4.5,11.0,62,0.00,,---,0.00,VWS V14.00,2013-03-28 20:10:00,
2013-03-28 15:20:00,68.0,54.5,30.10,South,173,7.4,10.5,62,0.00,,---,0.00,VWS V14.00,2013-03-28 20:20:00,
2013-03-28 15:30:00,67.6,54.2,30.10,SSW,196,4.9,11.2,62,0.00,,---,0.00,VWS V14.00,2013-03-28 20:30:00,
2013-03-28 15:40:00,67.8,54.3,30.10,South,183,6.3,12.5,62,0.00,,---,0.00,VWS V14.00,2013-03-28 20:40:00,
2013-03-28 15:50:00,68.0,54.5,30.10,South,176,6.9,12.5,62,0.00,,---,0.00,VWS V14.00,2013-03-28 20:50:00,
2013-03-28 16:00:00,69.1,55.5,30.10,SE,134,3.6,11.0,62,0.00,,---,0.00,VWS V14.00,2013-03-28 21:00:00,
2013-03-28 16:10:00,68.5,54.6,30.10,SE,135,4.9,11.2,61,0.00,,---,0.00,VWS V14.00,2013-03-28 21:10:00,
2013-03-28 16:20:00,68.9,55.4,30.10,SE,134,6.7,9.2,62,0.00,,---,0.00,VWS V14.00,2013-03-28 21:20:00,
2013-03-28 16:30:00,69.3,55.2,30.10,South,169,3.6,10.1,61,0.00,,---,0.00,VWS V14.00,2013-03-28 21:30:00,
2013-03-28 16:40:00,68.9,54.5,30.07,SE,132,5.8,11.0,60,0.00,,---,0.00,VWS V14.00,2013-03-28 21:40:00,
2013-03-28 16:50:00,69.6,55.6,30.07,SE,144,4.9,10.1,61,0.00,,---,0.00,VWS V14.00,2013-03-28 21:50:00,
2013-03-28 17:00:00,70.7,55.7,30.07,South,180,8.3,13.4,59,0.00,,---,0.00,VWS V14.00,2013-03-28 22:00:00,
2013-03-28 17:10:00,70.9,55.4,30.07,SE,134,6.3,11.0,58,0.00,,---,0.00,VWS V14.00,2013-03-28 22:10:00,
2013-03-28 17:20:00,71.1,55.5,30.07,SSW,211,6.9,11.6,58,0.00,,---,0.00,VWS V14.00,2013-03-28 22:20:00,
2013-03-28 17:30:00,70.7,54.7,30.07,SSW,209,8.3,12.1,57,0.00,,---,0.00,VWS V14.00,2013-03-28 22:30:00,
2013-03-28 17:40:00,70.7,54.7,30.07,SSE,161,4.0,11.6,57,0.00,,---,0.00,VWS V14.00,2013-03-28 22:40:00,
2013-03-28 17:50:00,71.2,55.2,30.07,SSE,163,6.7,10.1,57,0.00,,---,0.00,VWS V14.00,2013-03-28 22:50:00,
2013-03-28 18:00:00,70.9,54.4,30.07,ESE,118,4.9,11.6,56,0.00,,---,0.00,VWS V14.00,2013-03-28 23:00:00,
2013-03-28 18:10:00,70.3,54.4,30.07,SE,130,7.4,11.0,57,0.00,,---,0.00,VWS V14.00,2013-03-28 23:10:00,
2013-03-28 18:20:00,70.7,55.2,30.07,SE,145,6.7,12.5,58,0.00,,---,0.00,VWS V14.00,2013-03-28 23:20:00,
2013-03-28 18:30:00,70.9,54.9,30.07,SSE,168,6.9,9.2,57,0.00,,---,0.00,VWS V14.00,2013-03-28 23:30:00,
2013-03-28 18:40:00,70.7,54.7,30.07,South,174,5.4,11.2,57,0.00,,---,0.00,VWS V14.00,2013-03-28 23:40:00,
2013-03-28 18:50:00,70.3,54.4,30.07,SSE,155,4.0,9.2,57,0.00,,---,0.00,VWS V14.00,2013-03-28 23:50:00,
2013-03-28 19:00:00,70.2,54.2,30.07,South,189,6.3,10.1,57,0.00,,---,0.00,VWS V14.00,2013-03-29 00:00:00,
2013-03-28 19:10:00,70.2,54.2,30.07,WSW,246,4.5,8.7,57,0.00,,---,0.00,VWS V14.00,2013-03-29 00:10:00,
2013-03-28 19:20:00,70.3,54.4,30.07,South,184,5.8,12.5,57,0.00,,---,0.00,VWS V14.00,2013-03-29 00:20:00,
2013-03-28 19:30:00,70.2,54.2,30.07,SSE,152,6.3,11.2,57,0.00,,---,0.00,VWS V14.00,2013-03-29 00:30:00,
2013-03-28 19:40:00,69.6,54.2,30.07,SSW,213,6.9,8.7,58,0.00,,---,0.00,VWS V14.00,2013-03-29 00:40:00,
2013-03-28 19:50:00,69.1,53.7,30.07,South,191,6.3,8.7,58,0.00,,---,0.00,VWS V14.00,2013-03-29 00:50:00,
2013-03-28 20:00:00,68.9,54.0,30.07,SE,134,4.9,9.2,59,0.00,,---,0.00,VWS V14.00,2013-03-29 01:00:00,
2013-03-28 20:10:00,68.9,54.5,30.07,South,176,4.0,11.2,60,0.00,,---,0.00,VWS V14.00,2013-03-29 01:10:00,
2013-03-28 20:20:00,68.7,54.3,30.07,South,172,3.1,11.2,60,0.00,,---,0.00,VWS V14.00,2013-03-29 01:20:00,
2013-03-28 20:30:00,68.5,54.1,30.07,SSE,160,6.9,11.2,60,0.00,,---,0.00,VWS V14.00,2013-03-29 01:30:00,
2013-03-28 20:40:00,68.2,53.8,30.07,SSE,150,3.6,9.2,60,0.00,,---,0.00,VWS V14.00,2013-03-29 01:40:00,
2013-03-28 20:50:00,67.8,53.9,30.07,South,179,4.9,8.3,61,0.00,,---,0.00,VWS V14.00,2013-03-29 01:50:00,
2013-03-28 21:00:00,67.6,54.2,30.07,SE,142,4.0,8.7,62,0.00,,---,0.00,VWS V14.00,2013-03-29 02:00:00,
2013-03-28 21:10:00,67.1,53.7,30.07,SSW,196,7.8,9.6,62,0.00,,---,0.00,VWS V14.00,2013-03-29 02:10:00,
2013-03-28 21:20:00,67.3,54.3,30.07,SE,142,2.7,7.8,63,0.00,,---,0.00,VWS V14.00,2013-03-29 02:20:00,
2013-03-28 21:30:00,67.5,54.4,30.07,SSE,162,4.0,8.7,63,0.00,,---,0.00,VWS V14.00,2013-03-29 02:30:00,
2013-03-28 21:40:00,67.6,54.6,30.10,SSW,195,4.5,7.8,63,0.00,,---,0.00,VWS V14.00,2013-03-29 02:40:00,
2013-03-28 21:50:00,67.8,54.8,30.10,South,176,4.5,9.2,63,0.00,,---,0.00,VWS V14.00,2013-03-29 02:50:00,
2013-03-28 22:00:00,67.8,54.8,30.10,SSE,167,3.1,8.3,63,0.00,,---,0.00,VWS V14.00,2013-03-29 03:00:00,
2013-03-28 22:10:00,67.6,55.0,30.10,SSW,196,3.1,8.7,64,0.00,,---,0.00,VWS V14.00,2013-03-29 03:10:00,
2013-03-28 22:20:00,67.5,54.9,30.10,South,187,4.0,10.1,64,0.00,,---,0.00,VWS V14.00,2013-03-29 03:20:00,
2013-03-28 22:30:00,67.1,54.5,30.10,South,177,4.0,8.3,64,0.00,,---,0.00,VWS V14.00,2013-03-29 03:30:00,
2013-03-28 22:40:00,66.9,54.8,30.10,SSE,154,3.6,9.2,65,0.00,,---,0.00,VWS V14.00,2013-03-29 03:40:00,
2013-03-28 22:50:00,66.7,55.0,30.10,South,169,6.3,7.8,66,0.00,,---,0.00,VWS V14.00,2013-03-29 03:50:00,
2013-03-28 23:00:00,66.7,55.0,30.10,South,189,3.6,8.3,66,0.00,,---,0.00,VWS V14.00,2013-03-29 04:00:00,
2013-03-28 23:10:00,66.6,54.9,30.10,South,177,4.0,9.6,66,0.00,,---,0.00,VWS V14.00,2013-03-29 04:10:00,
2013-03-28 23:20:00,66.4,54.7,30.10,South,181,5.8,7.4,66,0.00,,---,0.00,VWS V14.00,2013-03-29 04:20:00,
2013-03-28 23:30:00,66.4,55.1,30.10,South,177,4.0,9.2,67,0.00,,---,0.00,VWS V14.00,2013-03-29 04:30:00,
2013-03-28 23:40:00,66.4,55.1,30.10,SSW,200,6.3,9.2,67,0.00,,---,0.00,VWS V14.00,2013-03-29 04:40:00,
2013-03-28 23:50:00,66.2,54.9,30.10,South,179,6.3,12.5,67,0.00,,---,0.00,VWS V14.00,2013-03-29 04:50:00,